createdAt,value
2022-10-06T00:02:23.825Z,97066.91
2022-10-06T00:04:50.522Z,97079.47
2022-10-06T00:07:17.166Z,97077.94
2022-10-06T00:09:43.815Z,97072.91
2022-10-06T00:12:10.742Z,97073.75
2022-10-06T00:14:37.433Z,97073.63
2022-10-06T00:17:04.737Z,97072.78
2022-10-06T00:19:31.626Z,97063.81
2022-10-06T00:21:58.954Z,97074.47
2022-10-06T00:24:25.575Z,97061.31
2022-10-06T00:26:52.247Z,97064.22
2022-10-06T00:29:18.961Z,97060.59
2022-10-06T00:31:45.968Z,97062.81
2022-10-06T00:34:13.143Z,97065.50
2022-10-06T00:36:40.187Z,97067.63
2022-10-06T00:39:07.100Z,97067.75
2022-10-06T00:41:34.139Z,97053.59
2022-10-06T00:44:01.819Z,97061.00
2022-10-06T00:46:47.610Z,97061.00
2022-10-06T00:49:21.043Z,97068.28
2022-10-06T00:52:24.450Z,97062.81
2022-10-06T00:54:51.358Z,97062.66
2022-10-06T00:57:19.992Z,97065.22
2022-10-06T00:59:47.452Z,97066.75
2022-10-06T01:02:21.437Z,97060.88
2022-10-06T01:04:52.997Z,97057.34
2022-10-06T01:07:22.590Z,97062.66
2022-10-06T01:09:49.643Z,97064.06
2022-10-06T01:12:16.898Z,97063.94
2022-10-06T01:14:43.682Z,97071.09
2022-10-06T01:17:14.317Z,97067.59
2022-10-06T01:19:40.941Z,97060.59
2022-10-06T01:22:08.769Z,97053.72
2022-10-06T01:24:36.066Z,97061.72
2022-10-06T01:27:06.064Z,97063.50
2022-10-06T01:29:34.218Z,97063.50
2022-10-06T01:32:01.040Z,97058.91
2022-10-06T01:34:28.343Z,97066.31
2022-10-06T01:36:55.422Z,97058.78
2022-10-06T01:39:22.062Z,97060.72
2022-10-06T01:41:48.701Z,97059.88
2022-10-06T01:44:15.360Z,97060.44
2022-10-06T01:46:42.001Z,97057.09
2022-10-06T01:49:08.701Z,97053.31
2022-10-06T01:51:35.393Z,97057.38
2022-10-06T01:54:02.220Z,97060.44
2022-10-06T01:56:28.903Z,97054.97
2022-10-06T01:58:55.526Z,97047.00
2022-10-06T02:01:22.164Z,97055.13
2022-10-06T02:03:48.822Z,97057.78
2022-10-06T02:06:15.528Z,97055.41
2022-10-06T02:08:42.192Z,97052.03
2022-10-06T02:11:11.314Z,97048.41
2022-10-06T02:13:38.621Z,97039.75
2022-10-06T02:16:08.156Z,97047.28
2022-10-06T02:18:35.717Z,97047.88
2022-10-06T02:21:03.494Z,97042.25
2022-10-06T02:23:31.088Z,97043.09
2022-10-06T02:26:02.406Z,97056.69
2022-10-06T02:28:30.068Z,97047.16
2022-10-06T02:31:02.475Z,97049.97
2022-10-06T02:33:29.628Z,97053.59
2022-10-06T02:35:56.583Z,97052.63
2022-10-06T02:38:24.120Z,97056.25
2022-10-06T02:40:51.452Z,97054.56
2022-10-06T02:43:18.236Z,97057.50
2022-10-06T02:45:53.276Z,97054.56
2022-10-06T02:48:20.080Z,97062.81
2022-10-06T02:50:56.301Z,97057.50
2022-10-06T02:53:25.209Z,97065.47
2022-10-06T02:56:25.231Z,97074.69
2022-10-06T02:58:53.252Z,97071.06
2022-10-06T03:01:22.691Z,97068.81
2022-10-06T03:03:49.969Z,97074.69
2022-10-06T03:06:22.098Z,97074.28
2022-10-06T03:09:00.322Z,97081.97
2022-10-06T03:11:33.035Z,97078.91
2022-10-06T03:14:00.013Z,97079.44
2022-10-06T03:16:30.215Z,97075.97
2022-10-06T03:18:56.946Z,97082.09
2022-10-06T03:21:26.261Z,97082.09
2022-10-06T03:23:54.206Z,97083.09
2022-10-06T03:26:27.681Z,97087.16
2022-10-06T03:28:55.364Z,97080.84
2022-10-06T03:31:22.087Z,97088.00
2022-10-06T03:33:48.749Z,97090.06
2022-10-06T03:36:18.098Z,97088.53
2022-10-06T03:38:44.941Z,97086.88
2022-10-06T03:41:17.014Z,97097.66
2022-10-06T03:43:45.874Z,97095.09
2022-10-06T03:46:14.426Z,97098.63
2022-10-06T03:48:41.981Z,97105.72
2022-10-06T03:51:15.047Z,97107.41
2022-10-06T03:53:45.414Z,97098.63
2022-10-06T03:56:21.177Z,97101.53
2022-10-06T03:59:01.838Z,97108.66
2022-10-06T04:01:36.052Z,97114.94
2022-10-06T04:04:04.325Z,97117.34
2022-10-06T04:06:33.494Z,97122.66
2022-10-06T04:09:00.810Z,97119.16
2022-10-06T04:11:33.100Z,97120.84
2022-10-06T04:14:02.269Z,97116.34
2022-10-06T04:16:40.781Z,97118.59
2022-10-06T04:19:12.848Z,97116.91
2022-10-06T04:21:41.894Z,97124.03
2022-10-06T04:24:10.724Z,97121.38
2022-10-06T04:26:45.154Z,97123.34
2022-10-06T04:29:12.257Z,97124.16
2022-10-06T04:31:41.178Z,97127.53
2022-10-06T04:34:10.015Z,97128.66
2022-10-06T04:36:41.006Z,97128.38
2022-10-06T04:39:10.370Z,97135.50
2022-10-06T04:41:38.870Z,97133.41
2022-10-06T04:44:06.461Z,97128.81
2022-10-06T04:46:49.434Z,97133.53
2022-10-06T04:49:19.873Z,97132.56
2022-10-06T04:51:49.663Z,97143.19
2022-10-06T04:54:16.867Z,97142.75
2022-10-06T04:56:43.518Z,97140.81
2022-10-06T04:59:10.336Z,97144.59
2022-10-06T05:01:38.041Z,97135.91
2022-10-06T05:04:06.292Z,97152.84
2022-10-06T05:06:36.107Z,97147.63
2022-10-06T05:09:06.294Z,97151.72
2022-10-06T05:11:33.535Z,97150.59
2022-10-06T05:14:00.544Z,97147.84
2022-10-06T05:16:29.539Z,97156.50
2022-10-06T05:18:56.768Z,97158.03
2022-10-06T05:21:29.295Z,97163.06
2022-10-06T05:23:56.129Z,97167.28
2022-10-06T05:26:25.885Z,97174.44
2022-10-06T05:28:52.839Z,97170.81
2022-10-06T05:31:28.262Z,97168.69
2022-10-06T05:33:56.423Z,97175.41
2022-10-06T05:36:29.761Z,97178.50
2022-10-06T05:38:57.615Z,97183.56
2022-10-06T05:41:26.604Z,97190.56
2022-10-06T05:43:53.475Z,97190.03
2022-10-06T05:46:28.655Z,97201.78
2022-10-06T05:49:04.495Z,97198.16
2022-10-06T05:51:33.390Z,97202.91
2022-10-06T05:54:00.732Z,97198.31
2022-10-06T05:56:29.493Z,97198.47
2022-10-06T05:58:57.734Z,97202.25
2022-10-06T06:01:30.145Z,97206.63
2022-10-06T06:04:00.252Z,97210.28
2022-10-06T06:06:27.333Z,97211.13
2022-10-06T06:09:16.486Z,97209.75
2022-10-06T06:11:47.368Z,97212.78
2022-10-06T06:14:18.743Z,97220.53
2022-10-06T06:16:46.665Z,97222.28
2022-10-06T06:19:14.415Z,97214.47
2022-10-06T06:21:41.607Z,97219.78
2022-10-06T06:24:08.305Z,97226.16
2022-10-06T06:26:37.382Z,97227.38
2022-10-06T06:29:06.390Z,97234.22
2022-10-06T06:31:35.544Z,97229.84
2022-10-06T06:34:04.891Z,97239.50
2022-10-06T06:36:37.356Z,97243.00
2022-10-06T06:39:06.357Z,97242.69
2022-10-06T06:41:37.025Z,97246.63
2022-10-06T06:44:04.937Z,97243.13
2022-10-06T06:46:32.684Z,97241.28
2022-10-06T06:49:04.483Z,97250.16
2022-10-06T06:51:37.363Z,97252.19
2022-10-06T06:54:05.131Z,97251.53
2022-10-06T06:56:35.386Z,97248.94
2022-10-06T06:59:03.882Z,97251.34
2022-10-06T07:01:30.738Z,97256.72
2022-10-06T07:04:01.125Z,97254.00
2022-10-06T07:06:30.420Z,97255.53
2022-10-06T07:08:58.875Z,97261.78
2022-10-06T07:11:29.420Z,97263.84
2022-10-06T07:14:07.218Z,97266.72
2022-10-06T07:16:53.125Z,97275.38
2022-10-06T07:19:39.904Z,97263.13
2022-10-06T07:22:28.482Z,97267.78
2022-10-06T07:25:11.634Z,97272.66
2022-10-06T07:27:44.814Z,97275.91
2022-10-06T07:30:18.016Z,97275.88
2022-10-06T07:32:45.777Z,97279.63
2022-10-06T07:35:12.960Z,97279.94
2022-10-06T07:37:40.682Z,97279.22
2022-10-06T07:40:08.737Z,97281.22
2022-10-06T07:42:48.419Z,97275.41
2022-10-06T07:45:36.021Z,97282.84
2022-10-06T07:48:04.041Z,97279.81
2022-10-06T07:50:30.820Z,97290.25
2022-10-06T07:52:57.490Z,97285.50
2022-10-06T07:55:24.147Z,97285.84
2022-10-06T07:57:51.395Z,97293.94
2022-10-06T08:00:22.718Z,97285.50
2022-10-06T08:02:49.594Z,97288.47
2022-10-06T08:05:16.305Z,97291.34
2022-10-06T08:07:42.934Z,97286.75
2022-10-06T08:10:10.186Z,97291.53
2022-10-06T08:12:37.999Z,97307.03
2022-10-06T08:15:11.422Z,97309.97
2022-10-06T08:17:38.545Z,97309.53
2022-10-06T08:20:10.991Z,97303.16
2022-10-06T08:22:38.892Z,97298.53
2022-10-06T08:25:07.785Z,97304.28
2022-10-06T08:27:35.720Z,97314.13
2022-10-06T08:30:07.305Z,97317.06
2022-10-06T08:32:34.237Z,97323.19
2022-10-06T08:35:00.948Z,97316.88
2022-10-06T08:37:27.705Z,97324.84
2022-10-06T08:39:55.277Z,97333.50
2022-10-06T08:42:46.445Z,97337.97
2022-10-06T08:45:24.221Z,97335.75
2022-10-06T08:48:00.835Z,97336.31
2022-10-06T08:50:30.393Z,97334.06
2022-10-06T08:52:57.003Z,97331.09
2022-10-06T08:55:34.291Z,97325.81
2022-10-06T08:58:31.685Z,97338.63
2022-10-06T09:01:25.665Z,97329.84
2022-10-06T09:04:01.932Z,97328.75
2022-10-06T09:06:44.367Z,97322.81
2022-10-06T09:09:32.840Z,97329.28
2022-10-06T09:12:22.337Z,97331.56
2022-10-06T09:15:03.228Z,97329.00
2022-10-06T09:17:37.765Z,97333.00
2022-10-06T09:20:20.334Z,97338.84
2022-10-06T09:22:50.298Z,97335.69
2022-10-06T09:25:21.159Z,97343.94
2022-10-06T09:27:55.212Z,97344.47
2022-10-06T09:30:22.773Z,97345.34
2022-10-06T09:33:00.137Z,97340.25
2022-10-06T09:35:29.381Z,97333.13
2022-10-06T09:38:08.584Z,97336.97
2022-10-06T09:40:39.201Z,97339.59
2022-10-06T09:43:25.972Z,97336.47
2022-10-06T09:45:54.911Z,97337.34
2022-10-06T09:48:26.428Z,97335.31
2022-10-06T09:51:18.456Z,97338.00
2022-10-06T09:54:15.459Z,97331.22
2022-10-06T09:56:45.150Z,97330.56
2022-10-06T09:59:23.441Z,97322.94
2022-10-06T10:01:55.441Z,97323.53
2022-10-06T10:04:26.747Z,97322.13
2022-10-06T10:06:53.972Z,97336.69
2022-10-06T10:09:29.078Z,97336.28
2022-10-06T10:12:29.979Z,97337.09
2022-10-06T10:15:23.496Z,97330.44
2022-10-06T10:17:53.100Z,97335.81
2022-10-06T10:20:52.180Z,97326.00
2022-10-06T10:23:28.639Z,97327.22
2022-10-06T10:26:03.204Z,97327.00
2022-10-06T10:28:48.249Z,97340.31
2022-10-06T10:31:14.728Z,97341.94
2022-10-06T10:34:23.825Z,97341.94
2022-10-06T10:37:08.880Z,97340.28
2022-10-06T10:40:01.202Z,97342.56
2022-10-06T10:42:46.057Z,97335.44
2022-10-06T10:45:32.402Z,97341.03
2022-10-06T10:48:10.882Z,97346.00
2022-10-06T10:51:07.120Z,97343.78
2022-10-06T10:53:34.823Z,97341.53
2022-10-06T10:56:07.707Z,97340.91
2022-10-06T10:58:36.891Z,97340.50
2022-10-06T11:01:26.759Z,97349.03
2022-10-06T11:03:59.428Z,97341.09
2022-10-06T11:06:54.659Z,97341.44
2022-10-06T11:09:31.440Z,97341.88
2022-10-06T11:12:17.342Z,97338.72
2022-10-06T11:14:59.872Z,97338.50
2022-10-06T11:17:44.925Z,97335.63
2022-10-06T11:20:32.794Z,97335.84
2022-10-06T11:23:02.103Z,97333.16
2022-10-06T11:26:05.502Z,97329.00
2022-10-06T11:28:49.873Z,97327.34
2022-10-06T11:31:35.753Z,97329.03
2022-10-06T11:34:04.807Z,97323.88
2022-10-06T11:36:54.440Z,97333.00
2022-10-06T11:39:39.711Z,97327.34
2022-10-06T11:42:21.347Z,97329.63
2022-10-06T11:45:14.009Z,97330.72
2022-10-06T11:47:49.340Z,97323.00
2022-10-06T11:50:42.822Z,97317.00
2022-10-06T11:53:37.201Z,97319.69
2022-10-06T11:56:33.103Z,97324.00
2022-10-06T11:58:59.681Z,97318.81
2022-10-06T12:01:36.292Z,97315.91
2022-10-06T12:04:08.741Z,97311.78
2022-10-06T12:06:47.561Z,97310.31
2022-10-06T12:09:27.484Z,97309.28
2022-10-06T12:11:56.793Z,97302.41
2022-10-06T12:17:28.104Z,97302.78
2022-10-06T12:20:05.281Z,97298.03
2022-10-06T12:23:03.469Z,97300.31
2022-10-06T12:25:48.162Z,97293.00
2022-10-06T12:28:33.347Z,97295.25
2022-10-06T12:31:06.060Z,97302.94
2022-10-06T12:33:40.979Z,97302.69
2022-10-06T12:36:29.359Z,97297.88
2022-10-06T12:39:02.368Z,97296.81
2022-10-06T12:41:56.526Z,97301.22
2022-10-06T12:44:26.838Z,97297.81
2022-10-06T12:46:57.222Z,97300.69
2022-10-06T12:49:36.972Z,97305.78
2022-10-06T12:52:24.132Z,97297.41
2022-10-06T12:55:19.291Z,97300.53
2022-10-06T12:57:48.618Z,97305.13
2022-10-06T13:00:37.019Z,97298.63
2022-10-06T13:03:07.172Z,97302.94
2022-10-06T13:05:35.568Z,97301.63
2022-10-06T13:08:05.622Z,97299.13
2022-10-06T13:10:33.304Z,97306.59
2022-10-06T13:13:00.724Z,97302.59
2022-10-06T13:15:35.717Z,97305.09
2022-10-06T13:18:08.218Z,97300.41
2022-10-06T13:20:42.442Z,97300.16
2022-10-06T13:23:12.395Z,97304.03
2022-10-06T13:25:45.153Z,97303.19
2022-10-06T13:28:29.118Z,97311.69
2022-10-06T13:31:15.490Z,97311.19
2022-10-06T13:33:44.497Z,97305.78
2022-10-06T13:36:12.514Z,97307.75
2022-10-06T13:38:41.760Z,97316.88
2022-10-06T13:41:20.946Z,97312.75
2022-10-06T13:43:52.783Z,97317.66
2022-10-06T13:46:23.992Z,97315.53
2022-10-06T13:49:03.413Z,97315.94
2022-10-06T13:51:32.145Z,97316.59
2022-10-06T13:54:04.101Z,97327.13
2022-10-06T13:56:37.807Z,97325.38
2022-10-06T13:59:34.097Z,97318.22
2022-10-06T14:02:20.522Z,97321.59
2022-10-06T14:05:38.509Z,97324.47
2022-10-06T14:08:11.114Z,97324.53
2022-10-06T14:10:40.779Z,97326.53
2022-10-06T14:13:29.106Z,97320.94
2022-10-06T14:15:59.927Z,97327.47
2022-10-06T14:18:33.426Z,97332.75
2022-10-06T14:21:36.891Z,97336.06
2022-10-06T14:24:07.527Z,97335.28
2022-10-06T14:26:37.610Z,97328.22
2022-10-06T14:29:04.411Z,97330.56
2022-10-06T14:31:34.112Z,97330.84
2022-10-06T14:34:01.612Z,97328.69
2022-10-06T14:36:35.887Z,97321.53
2022-10-06T14:39:04.581Z,97332.13
2022-10-06T14:41:31.715Z,97332.25
2022-10-06T14:44:05.947Z,97337.81
2022-10-06T14:46:33.425Z,97337.88
2022-10-06T14:49:02.889Z,97343.28
2022-10-06T14:51:31.047Z,97348.94
2022-10-06T14:54:01.464Z,97343.00
2022-10-06T14:56:31.934Z,97336.47
2022-10-06T14:59:05.987Z,97346.78
2022-10-06T15:01:35.514Z,97350.13
2022-10-06T15:04:04.772Z,97349.00
2022-10-06T15:06:50.473Z,97349.66
2022-10-06T15:09:17.417Z,97347.69
2022-10-06T15:11:44.101Z,97352.25
2022-10-06T15:14:10.720Z,97350.56
2022-10-06T15:16:42.154Z,97348.78
2022-10-06T15:19:11.039Z,97345.78
2022-10-06T15:21:40.127Z,97348.34
2022-10-06T15:24:10.909Z,97358.47
2022-10-06T15:26:56.364Z,97347.41
2022-10-06T15:29:23.033Z,97352.28
2022-10-06T15:31:52.858Z,97348.78
2022-10-06T15:34:23.567Z,97353.22
2022-10-06T15:36:52.410Z,97358.66
2022-10-06T15:39:21.531Z,97358.47
2022-10-06T15:41:48.690Z,97355.97
2022-10-06T15:44:16.367Z,97367.75
2022-10-06T15:46:45.690Z,97369.13
2022-10-06T15:49:15.168Z,97374.19
2022-10-06T15:51:48.807Z,97370.50
2022-10-06T15:54:21.930Z,97371.69
2022-10-06T15:56:56.414Z,97373.88
2022-10-06T15:59:24.724Z,97370.88
2022-10-06T16:01:55.823Z,97380.81
2022-10-06T16:04:31.278Z,97376.97
2022-10-06T16:06:58.664Z,97383.53
2022-10-06T16:09:30.952Z,97388.78
2022-10-06T16:11:59.288Z,97396.34
2022-10-06T16:14:26.526Z,97403.28
2022-10-06T16:16:53.287Z,97402.78
2022-10-06T16:19:20.191Z,97403.84
2022-10-06T16:21:48.902Z,97411.59
2022-10-06T16:24:19.972Z,97404.03
2022-10-06T16:26:47.303Z,97413.00
2022-10-06T16:29:15.044Z,97422.72
2022-10-06T16:31:42.473Z,97427.91
2022-10-06T16:34:09.776Z,97427.94
2022-10-06T16:36:39.323Z,97438.03
2022-10-06T16:39:07.638Z,97436.00
2022-10-06T16:41:34.438Z,97437.72
2022-10-06T16:44:01.385Z,97448.63
2022-10-06T16:46:29.879Z,97453.66
2022-10-06T16:48:59.299Z,97458.19
2022-10-06T16:51:25.908Z,97458.00
2022-10-06T16:53:58.178Z,97457.84
2022-10-06T16:56:30.480Z,97463.72
2022-10-06T16:59:04.818Z,97462.91
2022-10-06T17:01:35.046Z,97468.25
2022-10-06T17:04:05.106Z,97472.94
2022-10-06T17:06:39.181Z,97473.44
2022-10-06T17:09:11.925Z,97477.97
2022-10-06T17:11:38.713Z,97479.47
2022-10-06T17:14:05.816Z,97474.75
2022-10-06T17:16:35.079Z,97480.63
2022-10-06T17:19:02.574Z,97485.63
2022-10-06T17:21:45.523Z,97493.31
2022-10-06T17:24:13.390Z,97491.97
2022-10-06T17:26:42.570Z,97502.38
2022-10-06T17:29:22.566Z,97503.34
2022-10-06T17:31:53.414Z,97496.94
2022-10-06T17:34:23.583Z,97510.00
2022-10-06T17:36:52.477Z,97512.81
2022-10-06T17:39:24.498Z,97512.94
2022-10-06T17:41:53.561Z,97503.25
2022-10-06T17:44:23.226Z,97505.72
2022-10-06T17:46:52.903Z,97504.50
2022-10-06T17:49:21.225Z,97510.88
2022-10-06T17:51:49.226Z,97514.72
2022-10-06T17:54:19.847Z,97516.84
2022-10-06T17:56:48.904Z,97522.53
2022-10-06T17:59:18.058Z,97517.66
2022-10-06T18:01:45.445Z,97507.94
2022-10-06T18:04:16.858Z,97524.31
2022-10-06T18:06:46.445Z,97523.66
2022-10-06T18:09:14.667Z,97520.06
2022-10-06T18:11:43.920Z,97521.22
2022-10-06T18:14:21.810Z,97519.41
2022-10-06T18:16:59.167Z,97520.56
2022-10-06T18:19:35.983Z,97521.88
2022-10-06T18:22:10.209Z,97527.66
2022-10-06T18:24:37.281Z,97523.63
2022-10-06T18:27:06.449Z,97517.28
2022-10-06T18:29:35.918Z,97517.94
2022-10-06T18:32:56.639Z,97512.88
2022-10-06T18:37:38.707Z,97534.38
2022-10-06T18:40:08.889Z,97534.69
2022-10-06T18:42:35.975Z,97532.47
2022-10-06T18:45:21.203Z,97532.78
2022-10-06T18:48:18.553Z,97541.13
2022-10-06T18:50:45.805Z,97544.78
2022-10-06T18:53:12.674Z,97543.25
2022-10-06T18:55:39.323Z,97546.09
2022-10-06T18:58:06.503Z,97557.94
2022-10-06T19:00:33.469Z,97552.91
2022-10-06T19:03:00.114Z,97560.56
2022-10-06T19:05:27.005Z,97550.22
2022-10-06T19:07:54.119Z,97552.53
2022-10-06T19:10:20.985Z,97556.34
2022-10-06T19:12:48.475Z,97561.31
2022-10-06T19:15:20.262Z,97551.75
2022-10-06T19:17:48.950Z,97552.22
2022-10-06T19:20:16.017Z,97550.53
2022-10-06T19:22:43.521Z,97556.16
2022-10-06T19:25:11.362Z,97546.75
2022-10-06T19:27:37.966Z,97542.69
2022-10-06T19:30:05.166Z,97545.66
2022-10-06T19:32:34.737Z,97557.63
2022-10-06T19:35:02.179Z,97547.97
2022-10-06T19:37:31.246Z,97549.78
2022-10-06T19:39:58.481Z,97546.44
2022-10-06T19:42:43.524Z,97547.25
2022-10-06T19:45:11.843Z,97549.53
2022-10-06T19:47:38.802Z,97552.66
2022-10-06T19:50:11.589Z,97556.31
2022-10-06T19:52:39.160Z,97558.69
2022-10-06T19:55:06.157Z,97552.13
2022-10-06T19:57:33.719Z,97559.16
2022-10-06T20:00:00.611Z,97561.44
2022-10-06T20:02:28.935Z,97560.03
2022-10-06T20:04:56.530Z,97556.69
2022-10-06T20:07:27.590Z,97565.44
2022-10-06T20:09:54.839Z,97558.00
2022-10-06T20:12:24.887Z,97554.66
2022-10-06T20:14:53.645Z,97560.16
2022-10-06T20:17:20.915Z,97558.63
2022-10-06T20:19:47.605Z,97568.59
2022-10-06T20:22:14.401Z,97560.72
2022-10-06T20:24:41.136Z,97555.69
2022-10-06T20:27:07.947Z,97551.47
2022-10-06T20:29:35.062Z,97562.16
2022-10-06T20:32:01.723Z,97561.28
2022-10-06T20:34:32.132Z,97564.28
2022-10-06T20:37:02.065Z,97554.88
2022-10-06T20:39:51.861Z,97551.50
2022-10-06T20:42:19.936Z,97545.47
2022-10-06T20:44:47.455Z,97546.44
2022-10-06T20:47:14.605Z,97551.78
2022-10-06T20:49:44.689Z,97543.94
2022-10-06T20:52:14.780Z,97544.06
2022-10-06T20:54:41.912Z,97549.88
2022-10-06T20:57:09.680Z,97545.66
2022-10-06T20:59:37.108Z,97551.00
2022-10-06T21:02:05.210Z,97549.47
2022-10-06T21:04:32.170Z,97547.19
2022-10-06T21:06:58.849Z,97551.56
2022-10-06T21:09:28.261Z,97558.91
2022-10-06T21:11:55.399Z,97553.81
2022-10-06T21:14:21.999Z,97553.97
2022-10-06T21:16:50.771Z,97550.78
2022-10-06T21:19:19.366Z,97553.03
2022-10-06T21:21:50.764Z,97540.94
2022-10-06T21:24:17.914Z,97544.31
2022-10-06T21:26:44.868Z,97547.41
2022-10-06T21:29:15.669Z,97543.19
2022-10-06T21:31:43.977Z,97542.78
2022-10-06T21:34:11.485Z,97535.59
2022-10-06T21:36:38.846Z,97541.25
2022-10-06T21:39:06.308Z,97543.38
2022-10-06T21:41:40.602Z,97531.16
2022-10-06T21:44:18.258Z,97531.72
2022-10-06T21:46:50.606Z,97538.03
2022-10-06T21:49:19.682Z,97537.19
2022-10-06T21:51:48.917Z,97525.81
2022-10-06T21:54:16.394Z,97517.13
2022-10-06T21:56:43.064Z,97521.59
2022-10-06T21:59:10.342Z,97519.94
2022-10-06T22:01:45.335Z,97516.69
2022-10-06T22:04:14.319Z,97514.03
2022-10-06T22:06:42.111Z,97513.06
2022-10-06T22:09:11.808Z,97518.81
2022-10-06T22:11:40.170Z,97512.75
2022-10-06T22:14:10.951Z,97514.75
2022-10-06T22:16:38.552Z,97514.75
2022-10-06T22:19:07.246Z,97506.75
2022-10-06T22:21:45.804Z,97505.72
2022-10-06T22:24:18.110Z,97513.06
2022-10-06T22:26:45.292Z,97504.34
2022-10-06T22:29:15.198Z,97509.94
2022-10-06T22:31:43.884Z,97507.56
2022-10-06T22:34:12.982Z,97501.38
2022-10-06T22:36:40.311Z,97494.78
2022-10-06T22:39:07.435Z,97502.47
2022-10-06T22:41:34.298Z,97501.09
2022-10-06T22:44:01.036Z,97502.22
2022-10-06T22:46:34.257Z,97496.34
2022-10-06T22:49:01.794Z,97500.81
2022-10-06T22:51:28.776Z,97493.81
2022-10-06T22:53:58.662Z,97503.63
2022-10-06T22:56:31.639Z,97496.47
2022-10-06T22:59:01.829Z,97489.88
2022-10-06T23:01:29.510Z,97491.69
2022-10-06T23:03:56.775Z,97492.53
2022-10-06T23:06:24.568Z,97481.31
2022-10-06T23:08:51.681Z,97487.19
2022-10-06T23:11:20.808Z,97488.19
2022-10-06T23:13:48.539Z,97486.50
2022-10-06T23:16:17.168Z,97482.16
2022-10-06T23:18:45.101Z,97480.59
2022-10-06T23:21:23.959Z,97477.41
2022-10-06T23:23:56.343Z,97481.03
2022-10-06T23:26:24.006Z,97478.53
2022-10-06T23:28:56.500Z,97479.78
2022-10-06T23:31:23.779Z,97479.22
2022-10-06T23:33:50.705Z,97475.72
2022-10-06T23:36:18.347Z,97473.88
2022-10-06T23:38:45.590Z,97471.38
2022-10-06T23:41:12.927Z,97467.16
2022-10-06T23:43:39.573Z,97462.50
2022-10-06T23:46:06.309Z,97473.47
2022-10-06T23:48:33.151Z,97472.63
2022-10-06T23:51:09.261Z,97479.91
2022-10-06T23:53:36.441Z,97472.06
2022-10-06T23:56:04.157Z,97474.72
2022-10-06T23:58:31.023Z,97470.50
